Terminal Aerodrome Forecast
Issued by NWS

Home | Current Version | Previous Version | Text Only | Print | Product List | Glossary On
Versions: 1 2 3 4 5 6 7 8 9 10 11 12 13 14 15 16
828
FTUS45 KRIW 260520
TAFCOD
TAF
KCOD 260520Z 2606/2706 VRB06KT P6SM SCT060 BKN100
     FM261500 VRB05KT P6SM VCSH BKN060
     FM261800 05008KT P6SM VCTS SCT030CB BKN040
     FM270300 VRB05KT P6SM VCSH SCT040 BKN060
      AMD LTD TO CLD VIS AND WIND=

USA.gov is the U.S. government's official web portal to all federal, state and local government web resources and services.